sensor_id;sensor_type;location;lat;lon;timestamp;P1;durP1;ratioP1;P2;durP2;ratioP2
44824;SDS011;30542;47.928;2.138;2023-11-19T00:04:59;0.50;;;0.35;;
44824;SDS011;30542;47.928;2.138;2023-11-19T00:10:00;1.02;;;0.50;;
44824;SDS011;30542;47.928;2.138;2023-11-19T00:15:09;0.73;;;0.40;;
44824;SDS011;30542;47.928;2.138;2023-11-19T00:20:13;1.40;;;0.30;;
44824;SDS011;30542;47.928;2.138;2023-11-19T00:25:15;1.25;;;0.40;;
44824;SDS011;30542;47.928;2.138;2023-11-19T00:30:15;1.17;;;0.45;;
44824;SDS011;30542;47.928;2.138;2023-11-19T00:35:16;0.50;;;0.30;;
44824;SDS011;30542;47.928;2.138;2023-11-19T00:40:16;2.40;;;0.60;;
44824;SDS011;30542;47.928;2.138;2023-11-19T00:45:18;0.68;;;0.50;;
44824;SDS011;30542;47.928;2.138;2023-11-19T00:50:18;0.70;;;0.30;;
44824;SDS011;30542;47.928;2.138;2023-11-19T00:55:18;1.05;;;0.40;;
44824;SDS011;30542;47.928;2.138;2023-11-19T01:00:19;0.65;;;0.40;;
44824;SDS011;30542;47.928;2.138;2023-11-19T01:05:21;0.88;;;0.45;;
44824;SDS011;30542;47.928;2.138;2023-11-19T01:10:22;2.53;;;0.50;;
44824;SDS011;30542;47.928;2.138;2023-11-19T01:15:24;0.90;;;0.40;;
44824;SDS011;30542;47.928;2.138;2023-11-19T01:20:24;0.82;;;0.20;;
44824;SDS011;30542;47.928;2.138;2023-11-19T01:25:24;1.35;;;0.30;;
44824;SDS011;30542;47.928;2.138;2023-11-19T01:30:25;0.93;;;0.40;;
44824;SDS011;30542;47.928;2.138;2023-11-19T01:35:26;0.40;;;0.20;;
44824;SDS011;30542;47.928;2.138;2023-11-19T01:40:26;1.00;;;0.43;;
44824;SDS011;30542;47.928;2.138;2023-11-19T01:45:27;0.87;;;0.40;;
44824;SDS011;30542;47.928;2.138;2023-11-19T01:50:29;1.05;;;0.40;;
44824;SDS011;30542;47.928;2.138;2023-11-19T01:55:30;1.15;;;0.30;;
44824;SDS011;30542;47.928;2.138;2023-11-19T02:00:30;0.73;;;0.45;;
44824;SDS011;30542;47.928;2.138;2023-11-19T02:05:34;0.82;;;0.50;;
44824;SDS011;30542;47.928;2.138;2023-11-19T02:10:35;1.10;;;0.30;;
44824;SDS011;30542;47.928;2.138;2023-11-19T02:15:35;1.00;;;0.20;;
44824;SDS011;30542;47.928;2.138;2023-11-19T02:20:36;0.70;;;0.33;;
44824;SDS011;30542;47.928;2.138;2023-11-19T02:25:36;1.00;;;0.32;;
44824;SDS011;30542;47.928;2.138;2023-11-19T02:30:38;0.95;;;0.30;;
44824;SDS011;30542;47.928;2.138;2023-11-19T02:35:38;0.85;;;0.47;;
44824;SDS011;30542;47.928;2.138;2023-11-19T02:40:40;0.85;;;0.28;;
44824;SDS011;30542;47.928;2.138;2023-11-19T02:45:41;0.40;;;0.40;;
44824;SDS011;30542;47.928;2.138;2023-11-19T02:50:42;1.30;;;0.35;;
44824;SDS011;30542;47.928;2.138;2023-11-19T02:55:42;0.20;;;0.20;;
44824;SDS011;30542;47.928;2.138;2023-11-19T03:00:48;0.85;;;0.30;;
44824;SDS011;30542;47.928;2.138;2023-11-19T03:05:54;0.40;;;0.20;;
44824;SDS011;30542;47.928;2.138;2023-11-19T03:10:55;0.77;;;0.20;;
44824;SDS011;30542;47.928;2.138;2023-11-19T03:15:55;0.50;;;0.20;;
44824;SDS011;30542;47.928;2.138;2023-11-19T03:20:55;0.50;;;0.20;;
44824;SDS011;30542;47.928;2.138;2023-11-19T03:25:57;0.60;;;0.22;;
44824;SDS011;30542;47.928;2.138;2023-11-19T03:30:57;0.87;;;0.20;;
44824;SDS011;30542;47.928;2.138;2023-11-19T03:35:58;0.43;;;0.20;;
44824;SDS011;30542;47.928;2.138;2023-11-19T03:40:58;0.40;;;0.30;;
44824;SDS011;30542;47.928;2.138;2023-11-19T03:45:59;0.25;;;0.20;;
44824;SDS011;30542;47.928;2.138;2023-11-19T03:50:59;0.38;;;0.10;;
44824;SDS011;30542;47.928;2.138;2023-11-19T03:55:59;0.22;;;0.20;;
44824;SDS011;30542;47.928;2.138;2023-11-19T04:01:00;0.85;;;0.20;;
44824;SDS011;30542;47.928;2.138;2023-11-19T04:06:00;0.15;;;0.10;;
44824;SDS011;30542;47.928;2.138;2023-11-19T04:11:02;0.40;;;0.20;;
44824;SDS011;30542;47.928;2.138;2023-11-19T04:16:04;0.20;;;0.10;;
44824;SDS011;30542;47.928;2.138;2023-11-19T04:21:07;0.38;;;0.20;;
44824;SDS011;30542;47.928;2.138;2023-11-19T04:26:08;0.45;;;0.10;;
44824;SDS011;30542;47.928;2.138;2023-11-19T04:31:08;0.50;;;0.20;;
44824;SDS011;30542;47.928;2.138;2023-11-19T04:36:10;0.20;;;0.20;;
44824;SDS011;30542;47.928;2.138;2023-11-19T04:41:11;0.47;;;0.20;;
44824;SDS011;30542;47.928;2.138;2023-11-19T04:46:11;0.43;;;0.10;;
44824;SDS011;30542;47.928;2.138;2023-11-19T04:51:12;0.95;;;0.20;;
44824;SDS011;30542;47.928;2.138;2023-11-19T04:56:12;0.30;;;0.20;;
44824;SDS011;30542;47.928;2.138;2023-11-19T05:01:14;0.77;;;0.20;;
44824;SDS011;30542;47.928;2.138;2023-11-19T05:06:17;0.70;;;0.30;;
44824;SDS011;30542;47.928;2.138;2023-11-19T05:11:17;0.68;;;0.20;;
44824;SDS011;30542;47.928;2.138;2023-11-19T05:16:19;0.45;;;0.13;;
44824;SDS011;30542;47.928;2.138;2023-11-19T05:21:21;0.73;;;0.20;;
44824;SDS011;30542;47.928;2.138;2023-11-19T05:26:22;0.75;;;0.20;;
44824;SDS011;30542;47.928;2.138;2023-11-19T05:31:23;0.82;;;0.20;;
44824;SDS011;30542;47.928;2.138;2023-11-19T05:36:23;0.20;;;0.10;;
44824;SDS011;30542;47.928;2.138;2023-11-19T05:41:23;0.20;;;0.10;;
44824;SDS011;30542;47.928;2.138;2023-11-19T05:46:24;0.43;;;0.20;;
44824;SDS011;30542;47.928;2.138;2023-11-19T05:51:27;0.40;;;0.20;;
44824;SDS011;30542;47.928;2.138;2023-11-19T05:56:27;0.20;;;0.10;;
44824;SDS011;30542;47.928;2.138;2023-11-19T06:01:35;1.42;;;0.20;;
44824;SDS011;30542;47.928;2.138;2023-11-19T06:06:36;0.50;;;0.30;;
44824;SDS011;30542;47.928;2.138;2023-11-19T06:11:37;1.33;;;0.20;;
44824;SDS011;30542;47.928;2.138;2023-11-19T06:16:37;0.97;;;0.20;;
44824;SDS011;30542;47.928;2.138;2023-11-19T06:21:39;0.47;;;0.13;;
44824;SDS011;30542;47.928;2.138;2023-11-19T06:26:40;0.30;;;0.10;;
44824;SDS011;30542;47.928;2.138;2023-11-19T06:31:40;0.20;;;0.10;;
44824;SDS011;30542;47.928;2.138;2023-11-19T06:36:41;1.58;;;0.15;;
44824;SDS011;30542;47.928;2.138;2023-11-19T06:41:46;0.70;;;0.30;;
44824;SDS011;30542;47.928;2.138;2023-11-19T06:46:48;0.47;;;0.13;;
44824;SDS011;30542;47.928;2.138;2023-11-19T06:51:48;1.10;;;0.30;;
44824;SDS011;30542;47.928;2.138;2023-11-19T06:56:49;0.97;;;0.10;;
44824;SDS011;30542;47.928;2.138;2023-11-19T07:01:49;1.13;;;0.20;;
44824;SDS011;30542;47.928;2.138;2023-11-19T07:06:49;0.57;;;0.10;;
44824;SDS011;30542;47.928;2.138;2023-11-19T07:11:50;5.53;;;0.37;;
44824;SDS011;30542;47.928;2.138;2023-11-19T07:16:53;1.60;;;0.30;;
44824;SDS011;30542;47.928;2.138;2023-11-19T07:21:55;2.80;;;0.65;;
44824;SDS011;30542;47.928;2.138;2023-11-19T07:26:56;1.25;;;0.13;;
44824;SDS011;30542;47.928;2.138;2023-11-19T07:31:56;1.87;;;0.20;;
44824;SDS011;30542;47.928;2.138;2023-11-19T07:36:57;0.55;;;0.20;;
44824;SDS011;30542;47.928;2.138;2023-11-19T07:41:59;0.82;;;0.17;;
44824;SDS011;30542;47.928;2.138;2023-11-19T07:47:00;1.25;;;0.22;;
44824;SDS011;30542;47.928;2.138;2023-11-19T07:52:00;1.30;;;0.20;;
44824;SDS011;30542;47.928;2.138;2023-11-19T07:57:01;3.63;;;0.40;;
44824;SDS011;30542;47.928;2.138;2023-11-19T08:02:01;2.97;;;0.20;;
44824;SDS011;30542;47.928;2.138;2023-11-19T08:07:01;1.73;;;0.20;;
44824;SDS011;30542;47.928;2.138;2023-11-19T08:12:02;3.53;;;0.43;;
44824;SDS011;30542;47.928;2.138;2023-11-19T08:17:03;1.73;;;0.40;;
44824;SDS011;30542;47.928;2.138;2023-11-19T08:22:04;1.80;;;0.20;;
44824;SDS011;30542;47.928;2.138;2023-11-19T08:27:04;1.53;;;0.20;;
44824;SDS011;30542;47.928;2.138;2023-11-19T08:32:05;2.90;;;0.30;;
44824;SDS011;30542;47.928;2.138;2023-11-19T08:37:06;3.28;;;0.43;;
44824;SDS011;30542;47.928;2.138;2023-11-19T08:42:06;3.03;;;0.60;;
44824;SDS011;30542;47.928;2.138;2023-11-19T08:47:07;1.80;;;0.30;;
44824;SDS011;30542;47.928;2.138;2023-11-19T08:52:07;3.90;;;0.82;;
44824;SDS011;30542;47.928;2.138;2023-11-19T08:57:07;3.90;;;0.88;;
44824;SDS011;30542;47.928;2.138;2023-11-19T09:02:08;4.07;;;0.70;;
44824;SDS011;30542;47.928;2.138;2023-11-19T09:07:09;6.17;;;0.80;;
44824;SDS011;30542;47.928;2.138;2023-11-19T09:12:09;3.23;;;0.60;;
44824;SDS011;30542;47.928;2.138;2023-11-19T09:17:09;2.15;;;0.50;;
44824;SDS011;30542;47.928;2.138;2023-11-19T09:22:10;6.07;;;0.70;;
44824;SDS011;30542;47.928;2.138;2023-11-19T09:27:10;8.55;;;1.13;;
44824;SDS011;30542;47.928;2.138;2023-11-19T09:32:11;8.30;;;1.00;;
44824;SDS011;30542;47.928;2.138;2023-11-19T09:37:11;5.93;;;1.63;;
44824;SDS011;30542;47.928;2.138;2023-11-19T09:42:12;7.13;;;2.10;;
44824;SDS011;30542;47.928;2.138;2023-11-19T09:47:12;7.95;;;2.45;;
44824;SDS011;30542;47.928;2.138;2023-11-19T09:52:14;6.25;;;1.45;;
44824;SDS011;30542;47.928;2.138;2023-11-19T09:57:14;10.30;;;2.40;;
44824;SDS011;30542;47.928;2.138;2023-11-19T10:02:17;7.38;;;2.10;;
44824;SDS011;30542;47.928;2.138;2023-11-19T10:07:18;9.15;;;1.65;;
44824;SDS011;30542;47.928;2.138;2023-11-19T10:12:18;6.53;;;1.90;;
44824;SDS011;30542;47.928;2.138;2023-11-19T10:17:19;6.77;;;2.07;;
44824;SDS011;30542;47.928;2.138;2023-11-19T10:22:19;9.65;;;2.53;;
44824;SDS011;30542;47.928;2.138;2023-11-19T10:27:19;14.15;;;3.08;;
44824;SDS011;30542;47.928;2.138;2023-11-19T10:32:20;11.20;;;2.10;;
44824;SDS011;30542;47.928;2.138;2023-11-19T10:37:29;12.37;;;1.90;;
44824;SDS011;30542;47.928;2.138;2023-11-19T10:42:31;8.85;;;1.70;;
44824;SDS011;30542;47.928;2.138;2023-11-19T10:47:32;8.70;;;2.60;;
44824;SDS011;30542;47.928;2.138;2023-11-19T10:52:34;8.70;;;1.80;;
44824;SDS011;30542;47.928;2.138;2023-11-19T10:57:36;10.15;;;2.28;;
44824;SDS011;30542;47.928;2.138;2023-11-19T11:02:37;10.00;;;1.60;;
44824;SDS011;30542;47.928;2.138;2023-11-19T11:07:45;11.18;;;1.80;;
44824;SDS011;30542;47.928;2.138;2023-11-19T11:12:45;9.43;;;2.35;;
44824;SDS011;30542;47.928;2.138;2023-11-19T11:17:46;6.15;;;1.33;;
44824;SDS011;30542;47.928;2.138;2023-11-19T11:22:50;8.93;;;2.08;;
44824;SDS011;30542;47.928;2.138;2023-11-19T11:33:31;6.80;;;1.30;;
44824;SDS011;30542;47.928;2.138;2023-11-19T11:38:38;8.25;;;2.17;;
44824;SDS011;30542;47.928;2.138;2023-11-19T11:43:48;6.53;;;1.55;;
44824;SDS011;30542;47.928;2.138;2023-11-19T11:48:52;7.07;;;1.30;;
44824;SDS011;30542;47.928;2.138;2023-11-19T11:53:54;6.05;;;1.42;;
44824;SDS011;30542;47.928;2.138;2023-11-19T11:58:58;8.48;;;1.50;;
44824;SDS011;30542;47.928;2.138;2023-11-19T12:04:00;8.95;;;1.90;;
44824;SDS011;30542;47.928;2.138;2023-11-19T12:09:04;6.40;;;1.13;;
44824;SDS011;30542;47.928;2.138;2023-11-19T12:14:07;7.13;;;1.10;;
44824;SDS011;30542;47.928;2.138;2023-11-19T12:19:07;7.10;;;1.35;;
44824;SDS011;30542;47.928;2.138;2023-11-19T12:24:09;9.45;;;1.77;;
44824;SDS011;30542;47.928;2.138;2023-11-19T12:29:11;6.80;;;1.65;;
44824;SDS011;30542;47.928;2.138;2023-11-19T12:34:11;7.50;;;1.27;;
44824;SDS011;30542;47.928;2.138;2023-11-19T12:39:12;6.87;;;1.50;;
44824;SDS011;30542;47.928;2.138;2023-11-19T12:44:12;5.40;;;0.90;;
44824;SDS011;30542;47.928;2.138;2023-11-19T12:49:13;10.63;;;1.70;;
44824;SDS011;30542;47.928;2.138;2023-11-19T12:54:13;6.90;;;0.98;;
44824;SDS011;30542;47.928;2.138;2023-11-19T12:59:14;7.82;;;1.88;;
44824;SDS011;30542;47.928;2.138;2023-11-19T13:04:17;8.07;;;1.77;;
44824;SDS011;30542;47.928;2.138;2023-11-19T13:09:25;6.35;;;1.20;;
44824;SDS011;30542;47.928;2.138;2023-11-19T13:14:37;8.57;;;1.80;;
44824;SDS011;30542;47.928;2.138;2023-11-19T13:19:38;7.63;;;1.23;;
44824;SDS011;30542;47.928;2.138;2023-11-19T13:24:38;5.28;;;1.13;;
44824;SDS011;30542;47.928;2.138;2023-11-19T13:29:40;11.50;;;2.30;;
44824;SDS011;30542;47.928;2.138;2023-11-19T13:34:40;11.23;;;1.65;;
44824;SDS011;30542;47.928;2.138;2023-11-19T13:39:43;6.35;;;1.40;;
44824;SDS011;30542;47.928;2.138;2023-11-19T13:44:44;5.72;;;1.08;;
44824;SDS011;30542;47.928;2.138;2023-11-19T13:49:44;8.33;;;1.43;;
44824;SDS011;30542;47.928;2.138;2023-11-19T13:54:45;5.13;;;1.30;;
44824;SDS011;30542;47.928;2.138;2023-11-19T13:59:45;7.88;;;1.40;;
44824;SDS011;30542;47.928;2.138;2023-11-19T14:04:45;6.77;;;1.30;;
44824;SDS011;30542;47.928;2.138;2023-11-19T14:09:46;4.75;;;1.10;;
44824;SDS011;30542;47.928;2.138;2023-11-19T14:14:46;6.53;;;1.30;;
44824;SDS011;30542;47.928;2.138;2023-11-19T14:19:47;4.72;;;1.00;;
44824;SDS011;30542;47.928;2.138;2023-11-19T14:24:47;5.07;;;1.02;;
44824;SDS011;30542;47.928;2.138;2023-11-19T14:29:48;5.82;;;1.23;;
44824;SDS011;30542;47.928;2.138;2023-11-19T14:34:48;4.63;;;1.15;;
44824;SDS011;30542;47.928;2.138;2023-11-19T14:39:48;4.78;;;0.70;;
44824;SDS011;30542;47.928;2.138;2023-11-19T14:44:51;5.68;;;0.95;;
44824;SDS011;30542;47.928;2.138;2023-11-19T14:49:55;4.78;;;0.80;;
44824;SDS011;30542;47.928;2.138;2023-11-19T14:54:55;5.68;;;1.10;;
44824;SDS011;30542;47.928;2.138;2023-11-19T14:59:56;4.10;;;1.25;;
44824;SDS011;30542;47.928;2.138;2023-11-19T15:04:56;5.75;;;1.08;;
44824;SDS011;30542;47.928;2.138;2023-11-19T15:09:57;5.37;;;0.87;;
44824;SDS011;30542;47.928;2.138;2023-11-19T15:14:57;4.90;;;0.80;;
44824;SDS011;30542;47.928;2.138;2023-11-19T15:19:57;6.78;;;0.90;;
44824;SDS011;30542;47.928;2.138;2023-11-19T15:24:58;8.47;;;1.40;;
44824;SDS011;30542;47.928;2.138;2023-11-19T15:29:58;5.18;;;1.38;;
44824;SDS011;30542;47.928;2.138;2023-11-19T15:34:58;4.17;;;0.87;;
44824;SDS011;30542;47.928;2.138;2023-11-19T15:39:59;4.50;;;0.88;;
44824;SDS011;30542;47.928;2.138;2023-11-19T15:44:59;3.88;;;0.80;;
44824;SDS011;30542;47.928;2.138;2023-11-19T15:50:00;3.90;;;0.90;;
44824;SDS011;30542;47.928;2.138;2023-11-19T15:55:01;4.57;;;1.00;;
44824;SDS011;30542;47.928;2.138;2023-11-19T16:00:02;4.20;;;1.07;;
44824;SDS011;30542;47.928;2.138;2023-11-19T16:05:02;5.32;;;0.60;;
44824;SDS011;30542;47.928;2.138;2023-11-19T16:10:05;4.45;;;0.80;;
44824;SDS011;30542;47.928;2.138;2023-11-19T16:15:09;2.35;;;0.50;;
44824;SDS011;30542;47.928;2.138;2023-11-19T16:20:10;3.60;;;1.00;;
44824;SDS011;30542;47.928;2.138;2023-11-19T16:25:10;3.80;;;1.13;;
44824;SDS011;30542;47.928;2.138;2023-11-19T16:30:12;5.05;;;1.13;;
44824;SDS011;30542;47.928;2.138;2023-11-19T16:35:13;6.17;;;0.77;;
44824;SDS011;30542;47.928;2.138;2023-11-19T16:40:13;5.37;;;1.07;;
44824;SDS011;30542;47.928;2.138;2023-11-19T16:45:14;5.18;;;0.70;;
44824;SDS011;30542;47.928;2.138;2023-11-19T16:50:14;4.82;;;1.00;;
44824;SDS011;30542;47.928;2.138;2023-11-19T16:55:16;3.50;;;0.77;;
44824;SDS011;30542;47.928;2.138;2023-11-19T17:00:16;6.87;;;1.00;;
44824;SDS011;30542;47.928;2.138;2023-11-19T17:05:18;5.13;;;0.93;;
44824;SDS011;30542;47.928;2.138;2023-11-19T17:10:23;3.88;;;1.02;;
44824;SDS011;30542;47.928;2.138;2023-11-19T17:15:23;3.35;;;0.57;;
44824;SDS011;30542;47.928;2.138;2023-11-19T17:20:24;7.93;;;1.08;;
44824;SDS011;30542;47.928;2.138;2023-11-19T17:25:25;4.05;;;0.80;;
44824;SDS011;30542;47.928;2.138;2023-11-19T17:30:25;3.35;;;1.15;;
44824;SDS011;30542;47.928;2.138;2023-11-19T17:35:25;5.65;;;0.90;;
44824;SDS011;30542;47.928;2.138;2023-11-19T17:40:26;4.28;;;1.23;;
44824;SDS011;30542;47.928;2.138;2023-11-19T17:45:26;5.88;;;1.05;;
44824;SDS011;30542;47.928;2.138;2023-11-19T17:50:27;3.60;;;0.95;;
44824;SDS011;30542;47.928;2.138;2023-11-19T17:55:28;5.82;;;1.52;;
44824;SDS011;30542;47.928;2.138;2023-11-19T18:00:29;4.85;;;0.98;;
44824;SDS011;30542;47.928;2.138;2023-11-19T18:05:29;3.83;;;0.90;;
44824;SDS011;30542;47.928;2.138;2023-11-19T18:10:30;5.03;;;0.75;;
44824;SDS011;30542;47.928;2.138;2023-11-19T18:15:30;3.72;;;0.88;;
44824;SDS011;30542;47.928;2.138;2023-11-19T18:20:30;3.23;;;0.80;;
44824;SDS011;30542;47.928;2.138;2023-11-19T18:25:31;4.68;;;0.88;;
44824;SDS011;30542;47.928;2.138;2023-11-19T18:30:32;3.00;;;0.57;;
44824;SDS011;30542;47.928;2.138;2023-11-19T18:35:33;3.30;;;0.85;;
44824;SDS011;30542;47.928;2.138;2023-11-19T18:40:33;4.43;;;0.83;;
44824;SDS011;30542;47.928;2.138;2023-11-19T18:45:33;2.87;;;0.53;;
44824;SDS011;30542;47.928;2.138;2023-11-19T18:50:34;4.13;;;1.20;;
44824;SDS011;30542;47.928;2.138;2023-11-19T18:55:35;2.80;;;0.65;;
44824;SDS011;30542;47.928;2.138;2023-11-19T19:00:36;2.85;;;0.60;;
44824;SDS011;30542;47.928;2.138;2023-11-19T19:05:36;3.47;;;0.70;;
44824;SDS011;30542;47.928;2.138;2023-11-19T19:10:36;3.72;;;0.73;;
44824;SDS011;30542;47.928;2.138;2023-11-19T19:15:37;3.88;;;0.80;;
44824;SDS011;30542;47.928;2.138;2023-11-19T19:20:38;3.13;;;0.50;;
44824;SDS011;30542;47.928;2.138;2023-11-19T19:25:38;4.57;;;1.10;;
44824;SDS011;30542;47.928;2.138;2023-11-19T19:30:38;3.63;;;0.60;;
44824;SDS011;30542;47.928;2.138;2023-11-19T19:35:39;4.32;;;1.02;;
44824;SDS011;30542;47.928;2.138;2023-11-19T19:40:39;4.15;;;0.57;;
44824;SDS011;30542;47.928;2.138;2023-11-19T19:45:39;4.57;;;1.03;;
44824;SDS011;30542;47.928;2.138;2023-11-19T19:50:40;2.45;;;0.65;;
44824;SDS011;30542;47.928;2.138;2023-11-19T19:55:40;3.15;;;0.68;;
44824;SDS011;30542;47.928;2.138;2023-11-19T20:00:41;3.72;;;0.90;;
44824;SDS011;30542;47.928;2.138;2023-11-19T20:05:41;2.47;;;0.88;;
44824;SDS011;30542;47.928;2.138;2023-11-19T20:10:41;4.32;;;0.95;;
44824;SDS011;30542;47.928;2.138;2023-11-19T20:15:41;2.67;;;0.70;;
44824;SDS011;30542;47.928;2.138;2023-11-19T20:20:42;4.60;;;0.80;;
44824;SDS011;30542;47.928;2.138;2023-11-19T20:25:43;4.95;;;1.05;;
44824;SDS011;30542;47.928;2.138;2023-11-19T20:30:44;4.15;;;0.60;;
44824;SDS011;30542;47.928;2.138;2023-11-19T20:35:44;3.30;;;0.70;;
44824;SDS011;30542;47.928;2.138;2023-11-19T20:40:45;3.33;;;0.95;;
44824;SDS011;30542;47.928;2.138;2023-11-19T20:45:45;2.73;;;0.63;;
44824;SDS011;30542;47.928;2.138;2023-11-19T20:50:46;2.40;;;1.00;;
44824;SDS011;30542;47.928;2.138;2023-11-19T20:55:46;4.27;;;0.70;;
44824;SDS011;30542;47.928;2.138;2023-11-19T21:00:47;4.20;;;0.85;;
44824;SDS011;30542;47.928;2.138;2023-11-19T21:05:47;4.30;;;0.97;;
44824;SDS011;30542;47.928;2.138;2023-11-19T21:10:54;4.22;;;0.90;;
44824;SDS011;30542;47.928;2.138;2023-11-19T21:15:54;4.45;;;1.00;;
44824;SDS011;30542;47.928;2.138;2023-11-19T21:20:54;5.30;;;1.10;;
44824;SDS011;30542;47.928;2.138;2023-11-19T21:25:55;4.53;;;0.60;;
44824;SDS011;30542;47.928;2.138;2023-11-19T21:31:00;2.97;;;0.63;;
44824;SDS011;30542;47.928;2.138;2023-11-19T21:36:01;4.53;;;0.65;;
44824;SDS011;30542;47.928;2.138;2023-11-19T21:41:01;2.63;;;0.90;;
44824;SDS011;30542;47.928;2.138;2023-11-19T21:46:02;3.58;;;0.60;;
44824;SDS011;30542;47.928;2.138;2023-11-19T21:51:05;3.03;;;0.63;;
44824;SDS011;30542;47.928;2.138;2023-11-19T21:56:06;4.47;;;0.80;;
44824;SDS011;30542;47.928;2.138;2023-11-19T22:01:06;4.32;;;0.60;;
44824;SDS011;30542;47.928;2.138;2023-11-19T22:06:07;2.85;;;0.65;;
44824;SDS011;30542;47.928;2.138;2023-11-19T22:11:07;3.58;;;0.88;;
44824;SDS011;30542;47.928;2.138;2023-11-19T22:16:07;2.03;;;0.50;;
44824;SDS011;30542;47.928;2.138;2023-11-19T22:21:08;3.53;;;0.70;;
44824;SDS011;30542;47.928;2.138;2023-11-19T22:26:08;4.47;;;1.10;;
44824;SDS011;30542;47.928;2.138;2023-11-19T22:31:08;1.95;;;0.55;;
44824;SDS011;30542;47.928;2.138;2023-11-19T22:36:09;3.28;;;0.90;;
44824;SDS011;30542;47.928;2.138;2023-11-19T22:41:10;2.45;;;0.70;;
44824;SDS011;30542;47.928;2.138;2023-11-19T22:46:10;3.85;;;0.63;;
44824;SDS011;30542;47.928;2.138;2023-11-19T22:51:12;4.22;;;1.00;;
44824;SDS011;30542;47.928;2.138;2023-11-19T22:56:14;2.17;;;0.50;;
44824;SDS011;30542;47.928;2.138;2023-11-19T23:01:16;3.13;;;0.70;;
44824;SDS011;30542;47.928;2.138;2023-11-19T23:06:17;2.00;;;0.60;;
44824;SDS011;30542;47.928;2.138;2023-11-19T23:11:19;3.08;;;0.70;;
44824;SDS011;30542;47.928;2.138;2023-11-19T23:16:19;3.77;;;0.80;;
44824;SDS011;30542;47.928;2.138;2023-11-19T23:21:23;4.72;;;0.70;;
44824;SDS011;30542;47.928;2.138;2023-11-19T23:26:23;2.47;;;0.70;;
44824;SDS011;30542;47.928;2.138;2023-11-19T23:31:23;4.53;;;0.83;;
44824;SDS011;30542;47.928;2.138;2023-11-19T23:36:24;3.50;;;0.60;;
44824;SDS011;30542;47.928;2.138;2023-11-19T23:41:24;3.10;;;0.77;;
44824;SDS011;30542;47.928;2.138;2023-11-19T23:46:24;3.00;;;0.80;;
44824;SDS011;30542;47.928;2.138;2023-11-19T23:51:25;3.10;;;0.57;;
44824;SDS011;30542;47.928;2.138;2023-11-19T23:56:26;1.95;;;0.73;;
